createdAt,value
2023-01-09T00:01:00.432Z,11.10
2023-01-09T00:04:04.411Z,11.10
2023-01-09T00:07:06.646Z,11.00
2023-01-09T00:10:10.097Z,11.00
2023-01-09T00:13:13.611Z,11.00
2023-01-09T00:16:16.400Z,11.00
2023-01-09T00:19:18.490Z,10.90
2023-01-09T00:22:20.771Z,10.90
2023-01-09T00:25:22.958Z,10.90
2023-01-09T00:28:25.107Z,10.90
2023-01-09T00:31:27.751Z,10.90
2023-01-09T00:34:30.044Z,10.90
2023-01-09T00:37:32.186Z,10.90
2023-01-09T00:40:34.467Z,11.00
2023-01-09T00:43:47.101Z,11.00
2023-01-09T00:46:55.655Z,11.00
2023-01-09T00:50:06.515Z,11.00
2023-01-09T00:53:15.519Z,11.10
2023-01-09T00:56:19.643Z,11.00
2023-01-09T00:59:22.237Z,11.10
2023-01-09T01:02:24.418Z,11.10
2023-01-09T01:05:45.393Z,11.10
2023-01-09T01:08:47.577Z,11.10
2023-01-09T01:11:49.711Z,11.00
2023-01-09T01:14:52.624Z,10.90
2023-01-09T01:17:55.285Z,10.80
2023-01-09T01:20:57.581Z,10.80
2023-01-09T01:23:59.666Z,10.70
2023-01-09T01:27:01.887Z,10.70
2023-01-09T01:30:04.916Z,10.70
2023-01-09T01:33:07.839Z,10.70
2023-01-09T01:36:10.143Z,10.60
2023-01-09T01:39:12.390Z,10.50
2023-01-09T01:42:15.294Z,10.50
2023-01-09T01:45:36.014Z,10.50
2023-01-09T01:48:38.280Z,10.50
2023-01-09T01:51:44.724Z,10.50
2023-01-09T01:54:47.529Z,10.40
2023-01-09T01:57:55.378Z,10.40
2023-01-09T02:00:58.209Z,10.30
2023-01-09T02:04:02.442Z,10.20
2023-01-09T02:07:08.970Z,10.20
2023-01-09T02:10:11.291Z,10.20
2023-01-09T02:13:14.183Z,10.30
2023-01-09T02:16:31.500Z,10.20
2023-01-09T02:19:42.475Z,10.30
2023-01-09T02:23:09.109Z,10.50
2023-01-09T02:26:42.972Z,10.50
2023-01-09T02:30:22.045Z,10.50
2023-01-09T02:33:54.236Z,10.50
2023-01-09T02:37:28.001Z,10.50
2023-01-09T02:40:42.838Z,10.30
2023-01-09T02:43:45.105Z,10.30
2023-01-09T02:46:47.372Z,10.20
2023-01-09T02:49:55.701Z,10.20
2023-01-09T02:53:23.026Z,10.20
2023-01-09T02:56:43.907Z,10.10
2023-01-09T02:59:55.056Z,10.00
2023-01-09T03:03:14.431Z,10.20
2023-01-09T03:06:37.102Z,10.10
2023-01-09T03:09:42.227Z,10.00
2023-01-09T03:12:46.574Z,9.90
2023-01-09T03:15:51.094Z,10.00
2023-01-09T03:18:55.991Z,9.90
2023-01-09T03:21:59.258Z,9.90
2023-01-09T03:25:01.311Z,9.90
2023-01-09T03:28:06.346Z,9.80
2023-01-09T03:31:08.802Z,9.90
2023-01-09T03:34:10.934Z,9.70
2023-01-09T03:37:13.080Z,9.60
2023-01-09T03:40:15.972Z,9.50
2023-01-09T03:43:18.113Z,9.50
2023-01-09T03:46:20.419Z,9.50
2023-01-09T03:49:22.772Z,9.50
2023-01-09T03:52:24.881Z,9.50
2023-01-09T03:55:27.349Z,9.50
2023-01-09T03:58:29.796Z,9.50
2023-01-09T04:01:33.130Z,9.50
2023-01-09T04:04:35.327Z,9.50
2023-01-09T04:07:37.391Z,9.50
2023-01-09T04:10:39.900Z,9.50
2023-01-09T04:13:42.236Z,9.50
2023-01-09T04:16:44.638Z,9.50
2023-01-09T04:19:46.800Z,9.50
2023-01-09T04:22:48.847Z,9.50
2023-01-09T04:25:50.938Z,9.50
2023-01-09T04:28:53.024Z,9.40
2023-01-09T04:31:55.220Z,9.50
2023-01-09T04:34:57.450Z,9.40
2023-01-09T04:38:00.918Z,9.50
2023-01-09T04:41:03.092Z,9.40
2023-01-09T04:44:05.704Z,9.50
2023-01-09T04:47:07.769Z,9.50
2023-01-09T04:50:11.498Z,9.50
2023-01-09T04:53:13.674Z,9.60
2023-01-09T04:56:15.720Z,9.60
2023-01-09T04:59:18.117Z,9.60
2023-01-09T05:02:20.332Z,9.60
2023-01-09T05:05:22.535Z,9.70
2023-01-09T05:08:24.639Z,9.80
2023-01-09T05:11:27.290Z,9.80
2023-01-09T05:14:29.504Z,9.80
2023-01-09T05:17:31.641Z,9.80
2023-01-09T05:20:34.220Z,9.80
2023-01-09T05:23:36.481Z,9.70
2023-01-09T05:26:38.545Z,9.60
2023-01-09T05:29:40.699Z,9.50
2023-01-09T05:32:42.836Z,9.50
2023-01-09T05:35:44.919Z,9.40
2023-01-09T05:38:47.064Z,9.40
2023-01-09T05:41:49.311Z,9.30
2023-01-09T05:44:51.355Z,9.30
2023-01-09T05:47:53.737Z,9.20
2023-01-09T05:50:55.982Z,9.10
2023-01-09T05:53:59.295Z,9.00
2023-01-09T05:57:01.487Z,9.00
2023-01-09T06:00:04.754Z,8.90
2023-01-09T06:03:06.945Z,8.90
2023-01-09T06:06:09.259Z,8.90
2023-01-09T06:09:11.790Z,8.80
2023-01-09T06:12:14.097Z,8.80
2023-01-09T06:15:17.400Z,8.70
2023-01-09T06:18:19.469Z,8.70
2023-01-09T06:21:21.711Z,8.70
2023-01-09T06:24:23.865Z,8.70
2023-01-09T06:27:26.055Z,8.70
2023-01-09T06:30:28.355Z,8.60
2023-01-09T06:33:30.703Z,8.60
2023-01-09T06:36:32.854Z,8.60
2023-01-09T06:39:35.019Z,8.60
2023-01-09T06:42:37.047Z,8.70
2023-01-09T06:45:39.088Z,8.80
2023-01-09T06:48:41.246Z,8.70
2023-01-09T06:51:43.487Z,8.80
2023-01-09T06:54:45.579Z,8.80
2023-01-09T06:57:47.777Z,8.80
2023-01-09T07:00:49.954Z,8.80
2023-01-09T07:03:52.139Z,8.80
2023-01-09T07:06:54.237Z,8.90
2023-01-09T07:09:56.866Z,8.80
2023-01-09T07:12:58.941Z,8.80
2023-01-09T07:16:03.370Z,8.80
2023-01-09T07:19:05.652Z,8.80
2023-01-09T07:22:08.300Z,8.80
2023-01-09T07:25:10.512Z,8.80
2023-01-09T07:28:12.740Z,8.80
2023-01-09T07:31:14.939Z,8.80
2023-01-09T07:34:17.120Z,8.70
2023-01-09T07:37:22.241Z,8.70
2023-01-09T07:40:24.464Z,8.60
2023-01-09T07:43:26.609Z,8.60
2023-01-09T07:46:29.016Z,8.50
2023-01-09T07:49:31.219Z,8.50
2023-01-09T07:52:33.483Z,8.40
2023-01-09T07:55:36.031Z,8.30
2023-01-09T07:58:38.711Z,8.20
2023-01-09T08:01:40.947Z,8.20
2023-01-09T08:04:43.076Z,8.10
2023-01-09T08:07:45.334Z,8.10
2023-01-09T08:10:47.449Z,8.10
2023-01-09T08:13:49.619Z,8.10
2023-01-09T08:16:51.688Z,8.10
2023-01-09T08:19:54.033Z,8.00
2023-01-09T08:22:56.883Z,8.00
2023-01-09T08:25:59.021Z,7.90
2023-01-09T08:29:01.078Z,7.90
2023-01-09T08:32:03.266Z,8.00
2023-01-09T08:35:06.063Z,8.10
2023-01-09T08:38:08.269Z,8.00
2023-01-09T08:41:28.803Z,8.10
2023-01-09T08:44:49.708Z,8.10
2023-01-09T08:47:51.867Z,8.10
2023-01-09T08:50:54.440Z,8.10
2023-01-09T08:53:57.330Z,8.10
2023-01-09T08:56:59.580Z,8.10
2023-01-09T09:00:02.421Z,8.10
2023-01-09T09:03:05.230Z,8.10
2023-01-09T09:06:07.760Z,8.10
2023-01-09T09:09:10.746Z,8.10
2023-01-09T09:12:13.331Z,8.10
2023-01-09T09:15:23.912Z,8.10
2023-01-09T09:18:26.206Z,8.20
2023-01-09T09:21:28.358Z,8.20
2023-01-09T09:24:30.515Z,8.20
2023-01-09T09:27:33.284Z,8.30
2023-01-09T09:30:35.817Z,8.30
2023-01-09T09:33:37.965Z,8.30
2023-01-09T09:36:40.136Z,8.30
2023-01-09T09:39:42.378Z,8.40
2023-01-09T09:43:32.389Z,8.40
2023-01-09T09:46:47.830Z,8.30
2023-01-09T09:49:56.747Z,8.40
2023-01-09T09:53:16.539Z,8.40
2023-01-09T09:56:21.799Z,8.40
2023-01-09T09:59:29.767Z,8.50
2023-01-09T10:02:46.068Z,8.70
2023-01-09T10:05:50.912Z,8.80
2023-01-09T10:09:17.859Z,8.90
2023-01-09T10:12:42.562Z,8.90
2023-01-09T10:16:06.271Z,8.90
2023-01-09T10:19:37.279Z,9.00
2023-01-09T10:22:57.662Z,9.00
2023-01-09T10:26:02.642Z,9.00
2023-01-09T10:29:16.842Z,9.10
2023-01-09T10:32:45.540Z,9.20
2023-01-09T10:36:13.711Z,9.20
2023-01-09T10:39:33.519Z,9.20
2023-01-09T10:42:44.559Z,9.20
2023-01-09T10:45:54.582Z,9.20
2023-01-09T10:49:01.308Z,9.10
2023-01-09T10:52:15.968Z,9.10
2023-01-09T10:55:42.159Z,9.00
2023-01-09T10:58:44.500Z,8.90
2023-01-09T11:01:46.749Z,8.90
2023-01-09T11:04:49.183Z,8.90
2023-01-09T11:08:34.898Z,8.90
2023-01-09T11:11:40.851Z,8.90
2023-01-09T11:14:42.866Z,8.90
2023-01-09T11:17:50.379Z,8.90
2023-01-09T11:20:53.095Z,8.90
2023-01-09T11:23:56.618Z,8.90
2023-01-09T11:27:14.044Z,8.80
2023-01-09T11:30:20.119Z,8.80
2023-01-09T11:33:27.251Z,8.80
2023-01-09T11:36:33.411Z,8.70
2023-01-09T11:39:41.778Z,8.70
2023-01-09T11:43:21.462Z,8.70
2023-01-09T11:46:40.089Z,8.80
2023-01-09T11:49:42.207Z,8.80
2023-01-09T11:52:44.480Z,8.80
2023-01-09T11:55:51.376Z,8.90
2023-01-09T11:58:53.909Z,8.90
2023-01-09T12:02:14.641Z,8.90
2023-01-09T12:05:21.762Z,8.90
2023-01-09T12:08:49.021Z,8.90
2023-01-09T12:12:18.297Z,8.90
2023-01-09T12:15:32.692Z,8.80
2023-01-09T12:18:59.447Z,8.80
2023-01-09T12:22:28.117Z,8.80
2023-01-09T12:25:41.285Z,8.70
2023-01-09T12:28:43.556Z,8.70
2023-01-09T12:31:54.828Z,8.80
2023-01-09T12:35:21.637Z,8.70
2023-01-09T12:38:40.611Z,8.80
2023-01-09T12:42:15.331Z,8.80
2023-01-09T12:46:09.998Z,8.80
2023-01-09T12:49:27.675Z,8.90
2023-01-09T12:52:36.921Z,8.90
2023-01-09T12:55:47.748Z,8.90
2023-01-09T12:59:00.427Z,8.90
2023-01-09T13:02:11.673Z,9.00
2023-01-09T13:05:31.078Z,9.00
2023-01-09T13:08:52.741Z,9.10
2023-01-09T13:12:08.954Z,9.10
2023-01-09T13:15:29.688Z,9.10
2023-01-09T13:18:40.974Z,9.00
2023-01-09T13:21:43.484Z,9.00
2023-01-09T13:25:20.702Z,9.00
2023-01-09T13:28:37.208Z,9.00
2023-01-09T13:31:58.149Z,9.10
2023-01-09T13:35:01.481Z,9.00
2023-01-09T13:38:03.986Z,9.00
2023-01-09T13:41:27.828Z,9.00
2023-01-09T13:44:31.015Z,9.00
2023-01-09T13:47:33.939Z,9.10
2023-01-09T13:50:37.337Z,9.10
2023-01-09T13:53:44.303Z,9.10
2023-01-09T13:57:31.410Z,9.10
2023-01-09T14:00:36.593Z,9.00
2023-01-09T14:03:38.837Z,8.90
2023-01-09T14:06:40.927Z,8.90
2023-01-09T14:09:49.435Z,8.70
2023-01-09T14:12:54.351Z,8.70
2023-01-09T14:16:09.276Z,8.60
2023-01-09T14:19:27.760Z,8.50
2023-01-09T14:22:45.528Z,8.40
2023-01-09T14:26:06.600Z,8.40
2023-01-09T14:29:29.573Z,8.30
2023-01-09T14:32:36.239Z,8.20
2023-01-09T14:35:43.842Z,8.20
2023-01-09T14:38:55.723Z,8.10
2023-01-09T14:42:06.311Z,8.10
2023-01-09T14:45:18.453Z,8.00
2023-01-09T14:48:23.054Z,8.00
2023-01-09T14:51:27.879Z,8.00
2023-01-09T14:54:41.783Z,8.00
2023-01-09T14:57:43.908Z,7.90
2023-01-09T15:00:51.528Z,8.00
2023-01-09T15:03:59.133Z,8.00
2023-01-09T15:07:05.670Z,7.90
2023-01-09T15:10:14.944Z,7.90
2023-01-09T15:13:45.855Z,7.90
2023-01-09T15:16:48.280Z,7.90
2023-01-09T15:19:51.140Z,7.80
2023-01-09T15:22:55.196Z,7.80
2023-01-09T15:26:12.379Z,7.80
2023-01-09T15:29:20.500Z,7.80
2023-01-09T15:32:26.004Z,7.90
2023-01-09T15:35:28.956Z,7.90
2023-01-09T15:38:33.353Z,7.80
2023-01-09T15:41:53.884Z,7.80
2023-01-09T15:44:56.052Z,7.70
2023-01-09T15:48:15.038Z,7.50
2023-01-09T15:51:18.605Z,7.40
2023-01-09T15:54:33.421Z,7.30
2023-01-09T15:57:35.836Z,7.30
2023-01-09T16:00:41.950Z,7.20
2023-01-09T16:03:44.337Z,7.20
2023-01-09T16:06:51.806Z,7.10
2023-01-09T16:09:54.156Z,7.10
2023-01-09T16:12:57.000Z,7.00
2023-01-09T16:16:02.212Z,7.00
2023-01-09T16:19:04.532Z,7.00
2023-01-09T16:22:23.199Z,6.90
2023-01-09T16:25:27.973Z,6.80
2023-01-09T16:28:30.861Z,6.90
2023-01-09T16:31:33.469Z,6.80
2023-01-09T16:34:36.268Z,6.80
2023-01-09T16:37:38.895Z,6.70
2023-01-09T16:41:17.970Z,6.70
2023-01-09T16:44:20.052Z,6.70
2023-01-09T16:47:22.214Z,6.70
2023-01-09T16:50:25.442Z,6.60
2023-01-09T16:53:31.829Z,6.60
2023-01-09T16:56:35.831Z,6.60
2023-01-09T16:59:38.074Z,6.50
2023-01-09T17:02:40.158Z,6.50
2023-01-09T17:05:43.223Z,6.50
2023-01-09T17:08:45.394Z,6.50
2023-01-09T17:11:47.490Z,6.40
2023-01-09T17:14:50.219Z,6.40
2023-01-09T17:17:52.378Z,6.30
2023-01-09T17:20:56.704Z,6.30
2023-01-09T17:24:17.979Z,6.20
2023-01-09T17:27:44.788Z,6.20
2023-01-09T17:30:47.274Z,6.20
2023-01-09T17:33:49.664Z,6.20
2023-01-09T17:36:52.922Z,6.10
2023-01-09T17:40:01.056Z,6.10
2023-01-09T17:43:03.652Z,6.10
2023-01-09T17:46:06.115Z,6.00
2023-01-09T17:49:19.274Z,6.00
2023-01-09T17:52:22.327Z,6.00
2023-01-09T17:55:24.528Z,5.90
2023-01-09T17:58:30.333Z,5.90
2023-01-09T18:01:32.777Z,5.90
2023-01-09T18:04:38.804Z,5.90
2023-01-09T18:07:40.933Z,5.80
2023-01-09T18:10:45.500Z,5.80
2023-01-09T18:13:49.562Z,5.80
2023-01-09T18:16:51.859Z,5.80
2023-01-09T18:19:54.491Z,5.80
2023-01-09T18:22:56.909Z,5.70
2023-01-09T18:25:59.530Z,5.70
2023-01-09T18:29:02.216Z,5.70
2023-01-09T18:32:04.890Z,5.70
2023-01-09T18:35:10.201Z,5.70
2023-01-09T18:38:13.737Z,5.70
2023-01-09T18:41:17.527Z,5.60
2023-01-09T18:44:22.486Z,5.70
2023-01-09T18:47:24.847Z,5.60
2023-01-09T18:50:27.641Z,5.60
2023-01-09T18:53:30.033Z,5.60
2023-01-09T18:56:32.623Z,5.60
2023-01-09T18:59:35.478Z,5.60
2023-01-09T19:02:40.580Z,5.50
2023-01-09T19:05:43.990Z,5.50
2023-01-09T19:08:46.732Z,5.50
2023-01-09T19:11:53.795Z,5.50
2023-01-09T19:14:56.736Z,5.50
2023-01-09T19:18:04.238Z,5.50
2023-01-09T19:21:27.477Z,5.40
2023-01-09T19:24:31.643Z,5.40
2023-01-09T19:27:35.073Z,5.40
2023-01-09T19:30:37.805Z,5.40
2023-01-09T19:33:40.597Z,5.30
2023-01-09T19:36:45.227Z,5.30
2023-01-09T19:39:47.984Z,5.30
2023-01-09T19:42:54.187Z,5.20
2023-01-09T19:45:56.853Z,5.20
2023-01-09T19:49:04.637Z,5.20
2023-01-09T19:52:08.734Z,5.20
2023-01-09T19:55:15.711Z,5.10
2023-01-09T19:58:19.341Z,5.20
2023-01-09T20:01:24.850Z,5.10
2023-01-09T20:04:28.866Z,5.10
2023-01-09T20:07:32.805Z,5.10
2023-01-09T20:10:36.721Z,5.00
2023-01-09T20:13:41.148Z,5.00
2023-01-09T20:16:43.874Z,5.00
2023-01-09T20:19:46.957Z,5.00
2023-01-09T20:22:50.479Z,5.00
2023-01-09T20:25:54.574Z,5.00
2023-01-09T20:28:58.664Z,5.00
2023-01-09T20:32:01.492Z,5.00
2023-01-09T20:35:04.308Z,5.00
2023-01-09T20:38:06.924Z,5.00
2023-01-09T20:41:11.331Z,5.00
2023-01-09T20:44:16.018Z,5.00
2023-01-09T20:47:18.415Z,5.00
2023-01-09T20:50:21.725Z,5.00
2023-01-09T20:53:24.223Z,5.00
2023-01-09T20:56:28.285Z,5.00
2023-01-09T20:59:30.495Z,5.00
2023-01-09T21:02:34.189Z,5.00
2023-01-09T21:05:40.629Z,5.00
2023-01-09T21:08:44.911Z,5.00
2023-01-09T21:11:47.027Z,5.00
2023-01-09T21:14:49.154Z,5.00
2023-01-09T21:17:51.192Z,5.00
2023-01-09T21:20:53.341Z,5.00
2023-01-09T21:23:58.086Z,5.00
2023-01-09T21:27:00.229Z,5.00
2023-01-09T21:30:03.980Z,5.00
2023-01-09T21:33:06.081Z,5.10
2023-01-09T21:36:09.146Z,5.10
2023-01-09T21:39:11.290Z,5.00
2023-01-09T21:42:31.915Z,5.10
2023-01-09T21:45:53.001Z,5.10
2023-01-09T21:48:55.215Z,5.00
2023-01-09T21:51:57.583Z,5.10
2023-01-09T21:54:59.674Z,5.10
2023-01-09T21:58:02.133Z,5.00
2023-01-09T22:01:04.352Z,5.10
2023-01-09T22:04:06.623Z,5.10
2023-01-09T22:07:12.797Z,5.10
2023-01-09T22:10:14.921Z,5.00
2023-01-09T22:13:17.868Z,5.00
2023-01-09T22:16:20.212Z,5.10
2023-01-09T22:19:22.665Z,5.10
2023-01-09T22:22:24.791Z,5.10
2023-01-09T22:25:26.863Z,5.10
2023-01-09T22:28:29.391Z,5.10
2023-01-09T22:31:33.051Z,5.10
2023-01-09T22:34:35.127Z,5.10
2023-01-09T22:37:37.269Z,5.10
2023-01-09T22:40:40.011Z,5.10
2023-01-09T22:43:42.146Z,5.10
2023-01-09T22:46:44.918Z,5.10
2023-01-09T22:49:52.660Z,5.10
2023-01-09T22:52:55.588Z,5.10
2023-01-09T22:56:09.947Z,5.10
2023-01-09T22:59:12.021Z,5.10
2023-01-09T23:02:14.250Z,5.10
2023-01-09T23:05:16.889Z,5.10
2023-01-09T23:08:19.082Z,5.10
2023-01-09T23:11:43.475Z,5.10
2023-01-09T23:14:46.117Z,5.10
2023-01-09T23:17:48.241Z,5.10
2023-01-09T23:20:55.898Z,5.10
2023-01-09T23:23:58.030Z,5.10
2023-01-09T23:27:00.381Z,5.10
2023-01-09T23:30:02.564Z,5.20
2023-01-09T23:33:04.681Z,5.20
2023-01-09T23:36:06.864Z,5.10
2023-01-09T23:39:10.117Z,5.10
2023-01-09T23:42:30.827Z,5.10
2023-01-09T23:45:33.851Z,5.10
2023-01-09T23:48:35.914Z,5.10
2023-01-09T23:51:38.019Z,5.10
2023-01-09T23:54:40.126Z,5.10
2023-01-09T23:57:42.182Z,5.10
